Time;durP1;ratioP1;P1;durP2;ratioP2;P2;SDS_P1;SDS_P2;PMS_P1;PMS_P2;Temp;Humidity;BMP_temperature;BMP_pressure;BME280_temperature;BME280_humidity;BME280_pressure;Samples;Min_cycle;Max_cycle;Signal;HPM_P1;HPM_P2
2022/10/18 00:04:46;;;;;;;11.80;6.15;;;15.60;99.90;;;;;;10431545;28;20207;-83
2022/10/18 00:10:08;;;;;;;6.80;5.22;;;15.80;99.90;;;;;;10484932;28;20220;-86
2022/10/18 00:15:29;;;;;;;5.60;4.30;;;16.00;99.90;;;;;;10485146;28;20203;-82
2022/10/18 00:21:06;;;;;;;9.18;3.70;;;16.10;99.90;;;;;;10469429;28;20202;-88
2022/10/18 00:26:28;;;;;;;9.55;3.85;;;16.10;99.90;;;;;;10437288;28;20199;-85
2022/10/18 00:31:50;;;;;;;10.00;4.03;;;16.20;99.90;;;;;;10492769;28;20421;-83
2022/10/18 00:37:11;;;;;;;4.85;3.97;;;16.10;99.90;;;;;;10478212;28;20200;-84
2022/10/18 00:42:35;;;;;;;4.30;3.47;;;16.00;99.90;;;;;;10443737;28;20446;-84
2022/10/18 00:48:00;;;;;;;6.82;3.53;;;15.90;99.90;;;;;;10442456;28;20207;-83
2022/10/18 00:53:22;;;;;;;6.80;3.55;;;15.80;99.90;;;;;;10458429;28;20281;-86
2022/10/18 00:58:45;;;;;;;5.07;4.10;;;15.80;99.90;;;;;;10442616;28;20249;-88
2022/10/18 01:04:06;;;;;;;4.43;3.70;;;15.70;99.90;;;;;;10455840;28;20430;-82
2022/10/18 01:09:57;;;;;;;4.38;3.97;;;15.70;99.90;;;;;;10440729;28;20189;-87
2022/10/18 01:15:35;;;;;;;4.93;4.30;;;15.70;99.90;;;;;;10427528;28;20201;-87
2022/10/18 01:21:13;;;;;;;5.10;3.58;;;15.70;99.90;;;;;;10426990;28;20251;-86
2022/10/18 01:26:56;;;;;;;6.22;3.28;;;15.70;99.90;;;;;;10446020;28;20206;-82
2022/10/18 01:32:34;;;;;;;6.15;4.35;;;15.70;99.90;;;;;;10416204;28;20273;-84
2022/10/18 01:37:59;;;;;;;4.88;4.25;;;15.70;99.90;;;;;;10465885;28;20190;-82
2022/10/18 01:43:23;;;;;;;12.43;4.90;;;15.70;99.90;;;;;;10484536;28;20515;-81
2022/10/18 01:48:45;;;;;;;8.90;4.93;;;15.70;99.90;;;;;;10453253;28;20502;-83
2022/10/18 01:54:06;;;;;;;5.75;4.63;;;15.60;99.90;;;;;;10452993;28;20231;-83
2022/10/18 01:59:49;;;;;;;5.70;4.72;;;15.60;99.90;;;;;;10481034;28;20215;-82
2022/10/18 02:05:22;;;;;;;6.85;4.78;;;15.60;99.90;;;;;;10457735;28;20268;-81
2022/10/18 02:10:47;;;;;;;10.75;5.07;;;15.60;99.90;;;;;;10444834;28;20249;-88
2022/10/18 02:16:16;;;;;;;5.25;3.85;;;15.60;99.90;;;;;;10466795;28;20211;-87
2022/10/18 02:21:39;;;;;;;12.45;4.20;;;15.40;99.90;;;;;;10469909;28;20484;-84
2022/10/18 02:27:01;;;;;;;5.88;3.47;;;15.40;99.90;;;;;;10426914;28;20209;-81
2022/10/18 02:32:33;;;;;;;4.53;2.97;;;15.40;99.90;;;;;;10461451;28;20297;-81
2022/10/18 02:37:57;;;;;;;7.03;3.13;;;15.40;99.90;;;;;;10507033;28;20214;-81
2022/10/18 02:43:18;;;;;;;8.40;3.13;;;15.40;99.90;;;;;;10451913;28;20255;-81
2022/10/18 02:48:39;;;;;;;3.25;2.47;;;15.30;99.90;;;;;;10479787;28;20354;-83
2022/10/18 02:54:00;;;;;;;5.10;2.58;;;15.20;99.90;;;;;;10465292;28;20471;-82
2022/10/18 02:59:21;;;;;;;2.88;2.47;;;15.30;99.90;;;;;;10481185;28;20440;-83
2022/10/18 03:04:42;;;;;;;5.90;2.85;;;15.20;99.90;;;;;;10456368;28;20224;-82
2022/10/18 03:10:04;;;;;;;5.07;2.40;;;15.10;99.90;;;;;;10422642;28;20207;-81
2022/10/18 03:15:25;;;;;;;3.80;2.50;;;15.10;99.90;;;;;;10438801;28;20212;-82
2022/10/18 03:20:47;;;;;;;3.50;2.47;;;15.00;99.90;;;;;;10436521;28;20198;-83
2022/10/18 03:26:08;;;;;;;3.30;2.20;;;15.10;99.90;;;;;;10460446;28;20233;-82
2022/10/18 03:31:29;;;;;;;7.70;2.97;;;15.00;99.90;;;;;;10426835;28;20237;-82
2022/10/18 03:36:56;;;;;;;7.25;2.60;;;15.00;99.90;;;;;;10470016;28;20210;-82
2022/10/18 03:42:18;;;;;;;3.50;2.53;;;14.90;99.90;;;;;;10463480;28;20212;-81
2022/10/18 03:47:40;;;;;;;5.10;2.40;;;14.90;99.90;;;;;;10479328;28;20227;-84
2022/10/18 03:53:01;;;;;;;4.32;2.28;;;14.90;99.90;;;;;;10478636;28;20254;-86
2022/10/18 03:58:23;;;;;;;7.88;3.05;;;14.80;99.90;;;;;;10463251;28;20199;-88
2022/10/18 04:03:44;;;;;;;3.75;2.72;;;14.80;99.90;;;;;;10461251;28;20263;-82
2022/10/18 04:09:05;;;;;;;8.55;2.65;;;14.80;99.90;;;;;;10452018;28;20200;-82
2022/10/18 04:14:27;;;;;;;3.78;2.40;;;14.70;99.90;;;;;;10454329;28;20262;-85
2022/10/18 04:19:49;;;;;;;3.53;2.33;;;14.70;99.90;;;;;;10455041;28;20235;-84
2022/10/18 04:25:10;;;;;;;4.65;3.00;;;14.70;99.90;;;;;;10455067;28;20486;-87
2022/10/18 04:30:31;;;;;;;3.53;2.33;;;14.70;99.90;;;;;;10437312;28;20243;-84
2022/10/18 04:35:53;;;;;;;7.63;2.70;;;14.60;99.90;;;;;;10435554;28;20294;-82
2022/10/18 04:41:14;;;;;;;4.15;2.35;;;14.60;99.90;;;;;;10434925;28;20254;-87
2022/10/18 04:46:35;;;;;;;6.22;2.33;;;14.60;99.90;;;;;;10411717;28;20206;-83
2022/10/18 04:51:56;;;;;;;13.02;2.95;;;14.60;99.90;;;;;;10430724;28;20241;-87
2022/10/18 04:57:18;;;;;;;5.63;2.60;;;14.60;99.90;;;;;;10428483;28;20409;-82
2022/10/18 05:02:39;;;;;;;8.90;2.55;;;14.50;99.90;;;;;;10428457;28;20200;-87
2022/10/18 05:08:00;;;;;;;4.82;2.55;;;14.50;99.90;;;;;;10466009;28;20200;-85
2022/10/18 05:13:21;;;;;;;6.70;2.22;;;14.50;99.90;;;;;;10468523;28;20300;-82
2022/10/18 05:18:43;;;;;;;5.82;2.42;;;14.50;99.90;;;;;;10485624;28;20206;-85
2022/10/18 05:24:04;;;;;;;4.18;2.60;;;14.60;99.90;;;;;;10439220;28;20549;-86
2022/10/18 05:29:26;;;;;;;5.63;2.40;;;14.70;99.90;;;;;;10438831;28;20253;-84
2022/10/18 05:34:47;;;;;;;7.83;2.33;;;14.60;99.90;;;;;;10440133;28;20261;-83
2022/10/18 05:40:09;;;;;;;7.00;3.30;;;14.50;99.90;;;;;;10480962;28;20198;-82
2022/10/18 05:45:30;;;;;;;7.55;3.03;;;14.70;99.90;;;;;;10467082;28;20206;-86
2022/10/18 05:50:51;;;;;;;4.88;2.60;;;14.60;99.90;;;;;;10431125;28;20277;-86
2022/10/18 05:56:13;;;;;;;7.50;3.75;;;14.50;99.90;;;;;;10425447;28;20282;-85
2022/10/18 06:01:34;;;;;;;8.23;3.75;;;14.60;99.90;;;;;;10425467;28;20196;-86
2022/10/18 06:06:55;;;;;;;6.13;2.95;;;14.60;99.90;;;;;;10425394;28;20432;-85
2022/10/18 06:12:16;;;;;;;5.22;3.00;;;14.60;99.90;;;;;;10439303;28;20220;-85
2022/10/18 06:17:38;;;;;;;6.82;3.10;;;14.60;99.90;;;;;;10459974;28;20380;-83
2022/10/18 06:22:59;;;;;;;5.22;2.83;;;14.60;99.90;;;;;;10474518;28;20230;-86
2022/10/18 06:28:20;;;;;;;10.93;3.22;;;14.60;99.90;;;;;;10417584;28;20220;-82
2022/10/18 06:33:41;;;;;;;8.52;2.83;;;14.80;99.90;;;;;;10456962;28;20231;-82
2022/10/18 06:39:03;;;;;;;7.70;3.10;;;14.70;99.90;;;;;;10454545;28;20206;-81
2022/10/18 06:44:24;;;;;;;4.35;2.78;;;14.70;99.90;;;;;;10451972;28;20215;-84
2022/10/18 06:49:45;;;;;;;11.90;3.13;;;14.60;99.90;;;;;;10479874;28;20198;-86
2022/10/18 06:55:07;;;;;;;6.50;2.70;;;14.80;99.90;;;;;;10478359;28;20227;-81
2022/10/18 07:00:28;;;;;;;8.73;2.97;;;14.80;99.90;;;;;;10450296;28;20238;-82
2022/10/18 07:05:51;;;;;;;11.40;4.03;;;14.80;99.90;;;;;;10432893;28;20235;-82
2022/10/18 07:11:22;;;;;;;9.50;2.80;;;14.80;99.90;;;;;;10440445;28;20581;-85
2022/10/18 07:16:43;;;;;;;10.88;3.58;;;14.80;99.90;;;;;;10410937;28;20199;-82
2022/10/18 07:22:05;;;;;;;10.02;3.90;;;14.70;99.90;;;;;;10425164;28;20199;-85
2022/10/18 07:27:26;;;;;;;16.20;4.37;;;14.60;99.90;;;;;;10424177;28;20243;-81
2022/10/18 07:32:50;;;;;;;8.53;3.67;;;14.60;99.90;;;;;;10433938;28;20228;-81
2022/10/18 07:38:12;;;;;;;7.47;2.95;;;14.60;99.90;;;;;;10450343;28;20203;-82
2022/10/18 07:43:35;;;;;;;11.30;3.70;;;14.70;99.90;;;;;;10446817;28;20245;-82
2022/10/18 07:48:58;;;;;;;8.13;3.40;;;14.70;99.90;;;;;;10402213;28;20203;-81
2022/10/18 07:54:19;;;;;;;14.10;6.70;;;14.80;99.90;;;;;;10408921;28;20235;-85
2022/10/18 07:59:40;;;;;;;17.03;4.03;;;14.60;99.90;;;;;;10391933;28;20208;-85
2022/10/18 08:05:03;;;;;;;7.55;3.47;;;14.60;99.90;;;;;;10424544;28;20265;-82
2022/10/18 08:10:25;;;;;;;6.68;2.22;;;14.80;99.90;;;;;;10394489;28;20195;-81
2022/10/18 08:15:46;;;;;;;8.53;2.50;;;14.80;99.90;;;;;;10430512;28;20265;-80
2022/10/18 08:21:09;;;;;;;9.63;3.10;;;14.80;99.90;;;;;;10448879;28;20244;-89
2022/10/18 08:26:31;;;;;;;10.88;3.22;;;14.90;99.90;;;;;;10458831;28;20197;-81
2022/10/18 08:31:52;;;;;;;8.50;2.70;;;15.10;75.50;;;;;;10497531;28;20239;-81
2022/10/18 08:37:13;;;;;;;7.85;2.67;;;15.20;28.80;;;;;;10508008;28;20201;-82
2022/10/18 08:43:01;;;;;;;6.15;2.83;;;15.30;1.00;;;;;;10495122;28;20534;-81
2022/10/18 08:48:32;;;;;;;11.00;3.33;;;15.40;1.00;;;;;;10482679;28;20457;-83
2022/10/18 08:54:09;;;;;;;10.30;2.88;;;15.60;1.00;;;;;;10467851;28;20238;-83
2022/10/18 08:59:37;;;;;;;7.30;2.83;;;15.60;1.00;;;;;;10448535;28;20542;-84
2022/10/18 09:05:24;;;;;;;7.70;2.53;;;15.60;1.00;;;;;;10436954;28;20257;-82
2022/10/18 09:11:16;;;;;;;8.23;2.70;;;15.70;1.00;;;;;;10440797;28;20528;-83
2022/10/18 09:16:49;;;;;;;11.48;2.13;;;15.80;1.00;;;;;;10442491;28;20196;-82
2022/10/18 09:22:17;;;;;;;16.35;7.20;;;15.90;1.00;;;;;;10448516;28;20198;-82
2022/10/18 09:27:54;;;;;;;11.02;3.15;;;16.00;1.00;;;;;;10448198;28;20437;-82
2022/10/18 09:33:48;;;;;;;10.18;2.20;;;16.10;1.00;;;;;;10489647;28;20230;-82
2022/10/18 09:39:11;;;;;;;7.75;2.28;;;16.40;1.00;;;;;;10360022;28;20212;-82
2022/10/18 09:44:46;;;;;;;13.15;3.13;;;16.70;99.90;;;;;;10347226;28;20212;-82
2022/10/18 09:50:24;;;;;;;6.20;2.63;;;17.00;99.90;;;;;;10366969;28;20243;-82
2022/10/18 09:56:09;;;;;;;7.20;2.10;;;17.10;1.00;;;;;;10333295;28;20238;-82
2022/10/18 10:01:32;;;;;;;4.70;1.80;;;17.00;40.50;;;;;;10333081;28;20248;-83
2022/10/18 10:06:55;;;;;;;9.63;2.13;;;17.00;1.00;;;;;;10321921;28;20217;-82
2022/10/18 10:12:28;;;;;;;11.07;2.42;;;17.10;1.00;;;;;;10319936;28;20289;-83
2022/10/18 10:18:01;;;;;;;12.15;2.65;;;16.90;99.90;;;;;;10441213;28;20270;-82
2022/10/18 10:23:28;;;;;;;7.20;2.38;;;16.90;99.90;;;;;;10407027;28;20194;-82
2022/10/18 10:28:50;;;;;;;7.28;2.33;;;16.90;1.00;;;;;;10443673;28;20241;-85
2022/10/18 10:34:14;;;;;;;5.72;2.05;;;16.80;1.00;;;;;;10491127;28;20531;-82
2022/10/18 10:39:35;;;;;;;7.50;2.13;;;16.90;1.00;;;;;;10492745;28;20279;-82
2022/10/18 10:44:56;;;;;;;6.28;2.33;;;16.80;99.90;;;;;;10505481;28;20580;-82
2022/10/18 10:50:27;;;;;;;9.40;1.80;;;16.80;99.90;;;;;;10447705;28;20225;-82
2022/10/18 10:55:54;;;;;;;8.75;1.70;;;16.80;99.90;;;;;;10432569;28;20226;-82
2022/10/18 11:01:20;;;;;;;6.80;1.95;;;16.80;1.00;;;;;;10431800;28;20210;-82
2022/10/18 11:06:48;;;;;;;10.73;2.72;;;16.70;17.90;;;;;;10421004;28;20399;-81
2022/10/18 11:12:19;;;;;;;11.52;2.55;;;16.60;99.90;;;;;;10441168;28;20308;-81
2022/10/18 11:17:54;;;;;;;5.45;1.80;;;16.50;1.00;;;;;;10403666;28;20200;-82
2022/10/18 11:23:17;;;;;;;17.33;10.30;;;16.30;1.00;;;;;;10399006;28;20196;-81
2022/10/18 11:29:04;;;;;;;10.23;2.67;;;16.30;1.00;;;;;;10475263;28;20266;-82
2022/10/18 11:34:58;;;;;;;8.25;2.28;;;16.30;1.00;;;;;;10417477;28;20419;-82
2022/10/18 11:40:40;;;;;;;7.60;2.30;;;16.20;1.00;;;;;;10431166;28;20218;-82
2022/10/18 11:46:11;;;;;;;14.60;2.28;;;16.10;1.00;;;;;;10445257;28;20206;-82
2022/10/18 11:51:50;;;;;;;6.38;1.67;;;16.00;1.00;;;;;;10389441;28;20230;-84
2022/10/18 11:57:42;;;;;;;5.35;1.67;;;16.00;1.00;;;;;;10398965;28;20192;-81
2022/10/18 12:03:12;;;;;;;7.93;2.45;;;16.00;1.00;;;;;;10418081;28;20511;-81
2022/10/18 12:08:40;;;;;;;8.15;2.05;;;15.90;1.00;;;;;;10428705;28;20202;-83
2022/10/18 12:14:09;;;;;;;8.52;2.60;;;15.80;1.00;;;;;;10451491;28;20217;-83
2022/10/18 12:19:33;;;;;;;8.82;2.38;;;15.70;1.00;;;;;;10434963;28;20217;-83
2022/10/18 12:24:54;;;;;;;7.18;1.55;;;15.70;1.00;;;;;;10428401;28;20193;-82
2022/10/18 12:30:45;;;;;;;8.07;1.98;;;15.60;75.70;;;;;;10492289;28;20238;-82
2022/10/18 12:36:21;;;;;;;4.40;1.58;;;15.40;99.90;;;;;;10339710;28;20213;-82
2022/10/18 12:41:46;;;;;;;5.93;2.15;;;15.40;46.80;;;;;;10322621;28;20228;-82
2022/10/18 12:47:24;;;;;;;8.77;2.10;;;15.20;99.90;;;;;;10328717;28;20294;-82
2022/10/18 12:53:05;;;;;;;10.43;2.38;;;15.20;99.90;;;;;;10343141;28;20407;-82
2022/10/18 12:58:30;;;;;;;7.90;2.30;;;15.10;1.00;;;;;;10327779;28;20321;-84
2022/10/18 13:03:57;;;;;;;8.88;2.05;;;15.00;1.00;;;;;;10321365;28;20407;-82
2022/10/18 13:09:20;;;;;;;7.95;2.88;;;15.00;1.00;;;;;;10331412;28;20215;-83
2022/10/18 13:14:59;;;;;;;8.38;2.42;;;15.00;1.00;;;;;;10437184;28;20233;-82
2022/10/18 13:20:48;;;;;;;4.63;2.40;;;14.90;99.90;;;;;;10437222;28;20188;-88
2022/10/18 13:26:15;;;;;;;6.17;2.40;;;14.80;99.90;;;;;;10435664;28;20724;-82
2022/10/18 13:31:52;;;;;;;9.30;2.67;;;14.80;99.90;;;;;;10485539;28;20266;-83
2022/10/18 13:37:14;;;;;;;8.95;2.08;;;14.70;99.90;;;;;;10435324;28;20250;-84
2022/10/18 13:42:35;;;;;;;6.55;2.47;;;14.70;99.90;;;;;;10412703;28;20254;-84
2022/10/18 13:48:28;;;;;;;12.17;3.60;;;14.60;99.90;;;;;;10437646;28;20211;-82
2022/10/18 13:54:12;;;;;;;9.37;3.17;;;14.60;1.00;;;;;;10421294;28;20230;-81
2022/10/18 13:59:50;;;;;;;8.50;2.60;;;14.50;1.00;;;;;;10349614;28;20237;-81
2022/10/18 14:05:24;;;;;;;6.10;2.50;;;14.50;1.00;;;;;;10311915;28;20258;-83
2022/10/18 14:11:06;;;;;;;7.00;2.42;;;14.50;1.00;;;;;;10292959;28;20272;-82
2022/10/18 14:16:43;;;;;;;7.35;2.40;;;14.50;1.00;;;;;;10325744;28;20249;-81
2022/10/18 14:22:55;;;;;;;5.17;2.07;;;14.40;1.00;;;;;;10265804;28;20645;-83
2022/10/18 14:28:19;;;;;;;8.23;2.83;;;14.40;1.00;;;;;;10239759;28;20232;-84
2022/10/18 14:33:52;;;;;;;7.05;3.13;;;14.40;1.00;;;;;;10291812;28;20683;-81
2022/10/18 14:39:27;;;;;;;13.27;2.83;;;14.40;1.00;;;;;;10336831;28;20456;-83
2022/10/18 14:44:50;;;;;;;5.43;2.58;;;14.30;1.00;;;;;;10345211;28;20220;-84
2022/10/18 14:50:31;;;;;;;10.73;2.90;;;14.20;1.00;;;;;;10349876;28;20388;-83
2022/10/18 14:55:59;;;;;;;12.60;5.33;;;14.20;1.00;;;;;;10369162;28;20421;-83
2022/10/18 15:01:24;;;;;;;20.80;5.20;;;14.20;1.00;;;;;;10461911;28;20195;-81
2022/10/18 15:06:47;;;;;;;16.67;6.50;;;14.20;1.00;;;;;;10449335;28;20205;-88
2022/10/18 15:12:12;;;;;;;15.30;6.13;;;14.10;1.00;;;;;;10435800;28;20226;-81
2022/10/18 15:17:34;;;;;;;10.47;5.67;;;14.20;1.00;;;;;;10437111;28;20506;-82
2022/10/18 15:23:20;;;;;;;16.60;3.97;;;14.00;1.00;;;;;;10422302;28;20486;-83
2022/10/18 15:28:50;;;;;;;14.97;3.60;;;14.10;1.00;;;;;;10469709;28;20243;-82
2022/10/18 15:34:25;;;;;;;14.87;4.70;;;14.10;1.00;;;;;;10466191;28;20488;-82
2022/10/18 15:39:46;;;;;;;9.10;3.07;;;14.00;1.00;;;;;;10421709;28;20497;-82
2022/10/18 15:45:23;;;;;;;18.57;4.77;;;13.90;1.00;;;;;;10436130;28;20202;-82
2022/10/18 15:50:55;;;;;;;11.63;3.40;;;13.70;1.00;;;;;;10435658;28;20210;-81
2022/10/18 15:56:33;;;;;;;9.80;3.53;;;13.50;1.00;;;;;;10449700;28;20553;-83
2022/10/18 16:01:54;;;;;;;12.13;2.57;;;13.50;1.00;;;;;;10435888;28;20195;-83
2022/10/18 16:07:15;;;;;;;10.40;3.37;;;13.40;1.00;;;;;;10468582;28;20198;-83
2022/10/18 16:12:36;;;;;;;11.77;3.60;;;13.30;1.00;;;;;;10454539;28;20417;-82
2022/10/18 16:17:58;;;;;;;17.40;4.10;;;13.30;1.00;;;;;;10449630;28;20218;-83
2022/10/18 16:23:22;;;;;;;16.30;4.90;;;13.20;1.00;;;;;;10436497;28;20216;-83
2022/10/18 16:28:44;;;;;;;12.87;3.60;;;13.20;1.00;;;;;;10484201;28;20304;-82
2022/10/18 16:34:06;;;;;;;13.50;3.37;;;13.10;1.00;;;;;;10466981;28;20236;-81
2022/10/18 16:39:28;;;;;;;14.40;3.37;;;13.00;1.00;;;;;;10435384;28;20198;-81
2022/10/18 16:44:49;;;;;;;14.17;2.97;;;13.00;1.00;;;;;;10442722;28;20208;-81
2022/10/18 16:50:17;;;;;;;15.43;3.60;;;13.00;1.00;;;;;;10441740;28;20596;-81
2022/10/18 16:55:40;;;;;;;14.93;3.93;;;13.00;1.00;;;;;;10442147;28;20445;-81
2022/10/18 17:01:02;;;;;;;18.40;4.43;;;13.00;1.00;;;;;;10442891;28;20419;-80
2022/10/18 17:06:27;;;;;;;12.50;3.23;;;13.00;1.00;;;;;;10455577;28;20494;-80
2022/10/18 17:11:48;;;;;;;16.67;4.43;;;13.00;1.00;;;;;;10475268;28;20205;-81
2022/10/18 17:17:11;;;;;;;15.40;4.47;;;12.90;1.00;;;;;;10460472;28;20205;-81
2022/10/18 17:22:33;;;;;;;19.47;5.50;;;12.80;1.00;;;;;;10454958;28;20205;-81
2022/10/18 17:27:54;;;;;;;14.83;5.03;;;12.80;1.00;;;;;;10497613;28;20192;-83
2022/10/18 17:33:15;;;;;;;19.57;4.93;;;12.70;1.00;;;;;;10479649;28;20236;-80
2022/10/18 17:38:36;;;;;;;16.37;6.27;;;12.50;1.00;;;;;;10440190;28;20201;-81
2022/10/18 17:43:57;;;;;;;13.47;3.60;;;12.60;1.00;;;;;;10440436;28;20223;-81
2022/10/18 17:49:21;;;;;;;10.47;2.87;;;;;;;;;;10439533;28;20232;-81
2022/10/18 17:54:42;;;;;;;19.57;3.77;;;;;;;;;;10453551;28;20221;-81
2022/10/18 18:00:08;;;;;;;15.40;3.83;;;;;;;;;;10468002;28;20222;-82
2022/10/18 18:05:33;;;;;;;20.03;4.77;;;;;;;;;;10472959;28;20202;-82
2022/10/18 18:10:55;;;;;;;11.47;4.03;;;;;;;;;;10439297;28;20221;-81
2022/10/18 18:16:21;;;;;;;11.83;3.33;;;;;;;;;;10467047;28;20446;-80
2022/10/18 18:21:45;;;;;;;10.00;3.23;;;;;;;;;;10452751;28;20266;-82
2022/10/18 18:27:08;;;;;;;13.43;3.67;;;;;;;;;;10460105;28;20492;-80
2022/10/18 18:32:30;;;;;;;13.63;3.40;;;;;;;;;;10480930;28;20251;-80
2022/10/18 18:37:52;;;;;;;12.53;3.77;;;;;;;;;;10426971;28;20206;-81
2022/10/18 18:43:14;;;;;;;9.17;2.70;;;;;;;;;;10423989;28;20210;-81
2022/10/18 18:48:45;;;;;;;15.37;3.53;;;;;;;;;;10427113;28;20387;-80
2022/10/18 18:54:13;;;;;;;11.70;3.27;;;;;;;;;;10423417;28;20254;-82
2022/10/18 18:59:37;;;;;;;7.03;3.40;;;;;;;;;;10437278;28;20194;-81
2022/10/18 19:05:09;;;;;;;10.70;3.13;;;;;;;;;;10422683;28;20204;-81
2022/10/18 19:10:33;;;;;;;12.37;3.73;;;;;;;;;;10423392;28;20259;-81
2022/10/18 19:16:12;;;;;;;11.03;2.97;;;;;;;;;;10451018;28;20278;-81
2022/10/18 19:21:40;;;;;;;16.73;3.30;;;;;;;;;;10422872;28;20493;-81
2022/10/18 19:27:11;;;;;;;17.33;3.97;;;;;;;;;;10461586;28;20500;-83
2022/10/18 19:32:34;;;;;;;13.47;3.13;;;;;;;;;;10483127;28;20550;-82
2022/10/18 19:37:57;;;;;;;11.13;3.07;;;;;;;;;;10438711;28;20211;-81
2022/10/18 19:43:19;;;;;;;11.70;2.97;;;;;;;;;;10436153;28;20200;-82
2022/10/18 19:48:41;;;;;;;14.13;3.67;;;;;;;;;;10421992;28;20515;-81
2022/10/18 19:54:04;;;;;;;11.33;3.23;;;;;;;;;;10422227;28;20221;-81
2022/10/18 19:59:27;;;;;;;10.83;3.63;;;;;;;;;;10421822;28;20199;-82
2022/10/18 20:04:51;;;;;;;11.53;3.30;;;;;;;;;;10421956;28;20531;-82
2022/10/18 20:10:14;;;;;;;12.50;3.23;;;;;;;;;;10421777;28;20232;-82
2022/10/18 20:15:39;;;;;;;12.90;6.10;;;;;;;;;;10425424;28;20224;-81
2022/10/18 20:21:06;;;;;;;14.30;4.43;;;;;;;;;;10432091;28;20201;-82
2022/10/18 20:26:33;;;;;;;14.80;3.57;;;;;;;;;;10431768;28;20201;-82
2022/10/18 20:31:56;;;;;;;13.50;3.47;;;;;;;;;;10429112;28;20257;-82
2022/10/18 20:37:20;;;;;;;14.17;3.43;;;;;;;;;;10429468;28;20292;-81
2022/10/18 20:42:45;;;;;;;12.40;3.87;;;;;;;;;;10443958;28;20384;-81
2022/10/18 20:48:10;;;;;;;14.10;3.10;;;;;;;;;;10434807;28;20198;-82
2022/10/18 20:53:35;;;;;;;16.60;3.30;;;;;;;;;;10438822;28;20206;-81
2022/10/18 20:58:59;;;;;;;12.27;3.17;;;;;;;;;;10442495;28;20433;-82
2022/10/18 21:04:20;;;;;;;11.30;3.37;;;;;;;;;;10441774;28;20210;-82
2022/10/18 21:09:41;;;;;;;10.93;2.97;;;;;;;;;;10441320;28;20194;-82
2022/10/18 21:15:03;;;;;;;10.30;3.20;;;;;;;;;;10427704;28;20516;-80
2022/10/18 21:20:24;;;;;;;11.03;3.07;;;;;;;;;;10413328;28;20200;-81
2022/10/18 21:25:46;;;;;;;11.73;3.97;;;;;;;;;;10450978;28;20201;-82
2022/10/18 21:31:09;;;;;;;7.13;2.57;;;;;;;;;;10480714;28;20229;-82
2022/10/18 21:36:32;;;;;;;11.60;2.80;;;;;;;;;;10426834;28;20226;-81
2022/10/18 21:41:55;;;;;;;12.13;3.43;;;;;;;;;;10440124;28;20197;-81
2022/10/18 21:47:18;;;;;;;11.97;2.90;;;;;;;;;;10426726;28;20205;-82
2022/10/18 21:52:41;;;;;;;14.40;3.00;;;;;;;;;;10427092;28;20196;-83
2022/10/18 21:58:05;;;;;;;16.40;3.30;;;;;;;;;;10440088;28;20227;-81
2022/10/18 22:03:29;;;;;;;10.57;2.87;;;;;;;;;;10458985;28;20507;-82
2022/10/18 22:08:56;;;;;;;11.07;2.77;;;;;;;;;;10439147;28;20256;-82
2022/10/18 22:14:20;;;;;;;17.87;4.27;;;;;;;;;;10425432;28;20519;-83
2022/10/18 22:19:43;;;;;;;12.87;3.10;;;;;;;;;;10425010;28;20203;-82
2022/10/18 22:25:05;;;;;;;10.33;2.57;;;;;;;;;;10444815;28;20189;-81
2022/10/18 22:30:28;;;;;;;12.23;3.23;;;;;;;;;;10479813;28;20232;-81
2022/10/18 22:35:51;;;;;;;14.33;2.60;;;;;;;;;;10467628;28;20221;-81
2022/10/18 22:41:14;;;;;;;13.03;2.50;;;;;;;;;;10423968;28;20198;-81
2022/10/18 22:46:38;;;;;;;17.67;3.03;;;;;;;;;;10424046;28;20548;-82
2022/10/18 22:52:02;;;;;;;8.33;2.40;;;;;;;;;;10432893;28;20207;-83
2022/10/18 22:57:26;;;;;;;11.20;2.87;;;;;;;;;;10426293;28;20229;-81
2022/10/18 23:02:52;;;;;;;9.33;2.40;;;;;;;;;;10423445;28;20204;-81
2022/10/18 23:08:16;;;;;;;9.93;2.40;;;;;;;;;;10436990;28;20197;-81
2022/10/18 23:13:41;;;;;;;7.67;1.90;;;;;;;;;;10422934;28;20244;-80
2022/10/18 23:19:05;;;;;;;9.83;2.07;;;;;;;;;;10424888;28;20239;-80
2022/10/18 23:24:29;;;;;;;11.07;2.20;;;;;;;;;;10425304;28;20251;-80
2022/10/18 23:29:54;;;;;;;11.07;2.13;;;;;;;;;;10437497;28;20602;-81
2022/10/18 23:35:18;;;;;;;9.57;1.90;;;;;;;;;;10422254;28;20258;-82
2022/10/18 23:40:43;;;;;;;10.30;1.80;;;;;;;;;;10425065;28;20571;-81
2022/10/18 23:46:07;;;;;;;7.90;2.40;;;;;;;;;;10436011;28;20464;-82
2022/10/18 23:51:31;;;;;;;7.77;1.57;;;;;;;;;;10406699;28;20201;-81
2022/10/18 23:56:52;;;;;;;5.83;1.27;;;;;;;;;;10455295;28;20229;-82
